sensor_id;sensor_type;location;lat;lon;timestamp;P1;durP1;ratioP1;P2;durP2;ratioP2
16809;SDS011;51744;50.872;4.730;2023-03-23T00:01:51;5.32;;;3.88;;
16809;SDS011;51744;50.872;4.730;2023-03-23T00:04:38;4.88;;;4.13;;
16809;SDS011;51744;50.872;4.730;2023-03-23T00:07:26;4.47;;;4.00;;
16809;SDS011;51744;50.872;4.730;2023-03-23T00:10:14;4.70;;;4.30;;
16809;SDS011;51744;50.872;4.730;2023-03-23T00:13:00;4.20;;;3.90;;
16809;SDS011;51744;50.872;4.730;2023-03-23T00:15:47;5.95;;;4.45;;
16809;SDS011;51744;50.872;4.730;2023-03-23T00:18:36;5.57;;;4.25;;
16809;SDS011;51744;50.872;4.730;2023-03-23T00:21:23;4.97;;;4.47;;
16809;SDS011;51744;50.872;4.730;2023-03-23T00:24:17;4.80;;;4.30;;
16809;SDS011;51744;50.872;4.730;2023-03-23T00:27:05;5.23;;;4.50;;
16809;SDS011;51744;50.872;4.730;2023-03-23T00:29:53;4.28;;;3.88;;
16809;SDS011;51744;50.872;4.730;2023-03-23T00:32:39;4.63;;;4.10;;
16809;SDS011;51744;50.872;4.730;2023-03-23T00:35:26;5.40;;;4.03;;
16809;SDS011;51744;50.872;4.730;2023-03-23T00:38:14;4.80;;;4.10;;
16809;SDS011;51744;50.872;4.730;2023-03-23T00:41:01;5.85;;;4.25;;
16809;SDS011;51744;50.872;4.730;2023-03-23T00:43:48;4.55;;;4.15;;
16809;SDS011;51744;50.872;4.730;2023-03-23T00:46:35;5.30;;;4.20;;
16809;SDS011;51744;50.872;4.730;2023-03-23T00:49:28;5.10;;;4.13;;
16809;SDS011;51744;50.872;4.730;2023-03-23T00:52:14;4.30;;;3.80;;
16809;SDS011;51744;50.872;4.730;2023-03-23T00:55:00;4.40;;;4.00;;
16809;SDS011;51744;50.872;4.730;2023-03-23T00:57:47;4.77;;;4.00;;
16809;SDS011;51744;50.872;4.730;2023-03-23T01:00:36;6.15;;;4.15;;
16809;SDS011;51744;50.872;4.730;2023-03-23T01:03:23;5.78;;;4.07;;
16809;SDS011;51744;50.872;4.730;2023-03-23T01:06:10;4.65;;;4.15;;
16809;SDS011;51744;50.872;4.730;2023-03-23T01:09:00;4.63;;;4.18;;
16809;SDS011;51744;50.872;4.730;2023-03-23T01:11:48;5.43;;;4.35;;
16809;SDS011;51744;50.872;4.730;2023-03-23T01:14:35;4.53;;;4.00;;
16809;SDS011;51744;50.872;4.730;2023-03-23T01:17:23;4.97;;;4.00;;
16809;SDS011;51744;50.872;4.730;2023-03-23T01:20:09;5.37;;;4.03;;
16809;SDS011;51744;50.872;4.730;2023-03-23T01:22:56;4.40;;;4.03;;
16809;SDS011;51744;50.872;4.730;2023-03-23T01:25:44;4.53;;;4.00;;
16809;SDS011;51744;50.872;4.730;2023-03-23T01:28:31;4.63;;;3.85;;
16809;SDS011;51744;50.872;4.730;2023-03-23T01:31:19;5.28;;;4.03;;
16809;SDS011;51744;50.872;4.730;2023-03-23T01:34:07;4.65;;;3.83;;
16809;SDS011;51744;50.872;4.730;2023-03-23T01:36:55;5.13;;;3.75;;
16809;SDS011;51744;50.872;4.730;2023-03-23T01:39:41;4.60;;;4.20;;
16809;SDS011;51744;50.872;4.730;2023-03-23T01:42:29;4.70;;;4.15;;
16809;SDS011;51744;50.872;4.730;2023-03-23T01:45:26;4.63;;;4.23;;
16809;SDS011;51744;50.872;4.730;2023-03-23T01:48:15;4.43;;;4.03;;
16809;SDS011;51744;50.872;4.730;2023-03-23T01:51:06;4.35;;;4.05;;
16809;SDS011;51744;50.872;4.730;2023-03-23T01:53:55;4.47;;;4.07;;
16809;SDS011;51744;50.872;4.730;2023-03-23T01:56:45;4.53;;;4.05;;
16809;SDS011;51744;50.872;4.730;2023-03-23T01:59:35;5.43;;;4.35;;
16809;SDS011;51744;50.872;4.730;2023-03-23T02:02:37;4.40;;;4.03;;
16809;SDS011;51744;50.872;4.730;2023-03-23T02:05:24;5.25;;;3.97;;
16809;SDS011;51744;50.872;4.730;2023-03-23T02:08:17;5.40;;;3.95;;
16809;SDS011;51744;50.872;4.730;2023-03-23T02:11:08;4.78;;;4.25;;
16809;SDS011;51744;50.872;4.730;2023-03-23T02:13:58;4.78;;;3.80;;
16809;SDS011;51744;50.872;4.730;2023-03-23T02:16:45;4.70;;;3.92;;
16809;SDS011;51744;50.872;4.730;2023-03-23T02:19:41;4.43;;;4.00;;
16809;SDS011;51744;50.872;4.730;2023-03-23T02:22:58;4.72;;;4.20;;
16809;SDS011;51744;50.872;4.730;2023-03-23T02:29:15;5.82;;;4.00;;
16809;SDS011;51744;50.872;4.730;2023-03-23T02:32:32;4.75;;;3.97;;
16809;SDS011;51744;50.872;4.730;2023-03-23T02:35:43;4.63;;;3.90;;
16809;SDS011;51744;50.872;4.730;2023-03-23T02:38:33;6.53;;;3.93;;
16809;SDS011;51744;50.872;4.730;2023-03-23T02:41:27;4.95;;;3.40;;
16809;SDS011;51744;50.872;4.730;2023-03-23T02:44:16;5.18;;;3.53;;
16809;SDS011;51744;50.872;4.730;2023-03-23T02:47:04;4.20;;;3.40;;
16809;SDS011;51744;50.872;4.730;2023-03-23T02:49:54;5.43;;;3.58;;
16809;SDS011;51744;50.872;4.730;2023-03-23T02:52:44;5.90;;;3.47;;
16809;SDS011;51744;50.872;4.730;2023-03-23T02:55:33;5.80;;;3.38;;
16809;SDS011;51744;50.872;4.730;2023-03-23T02:58:25;4.45;;;3.42;;
16809;SDS011;51744;50.872;4.730;2023-03-23T03:04:32;3.70;;;3.25;;
16809;SDS011;51744;50.872;4.730;2023-03-23T03:07:25;3.90;;;3.28;;
16809;SDS011;51744;50.872;4.730;2023-03-23T03:10:24;4.72;;;3.25;;
16809;SDS011;51744;50.872;4.730;2023-03-23T03:13:14;4.43;;;3.20;;
16809;SDS011;51744;50.872;4.730;2023-03-23T03:16:11;4.75;;;3.53;;
16809;SDS011;51744;50.872;4.730;2023-03-23T03:19:06;4.63;;;3.20;;
16809;SDS011;51744;50.872;4.730;2023-03-23T03:21:58;4.40;;;3.13;;
16809;SDS011;51744;50.872;4.730;2023-03-23T03:24:56;4.72;;;3.30;;
16809;SDS011;51744;50.872;4.730;2023-03-23T03:27:45;3.80;;;3.17;;
16809;SDS011;51744;50.872;4.730;2023-03-23T03:30:38;4.47;;;3.23;;
16809;SDS011;51744;50.872;4.730;2023-03-23T03:33:29;4.27;;;3.00;;
16809;SDS011;51744;50.872;4.730;2023-03-23T03:36:19;5.10;;;3.05;;
16809;SDS011;51744;50.872;4.730;2023-03-23T03:39:10;3.58;;;3.00;;
16809;SDS011;51744;50.872;4.730;2023-03-23T03:41:56;4.13;;;3.20;;
16809;SDS011;51744;50.872;4.730;2023-03-23T03:44:45;4.05;;;2.90;;
16809;SDS011;51744;50.872;4.730;2023-03-23T03:47:31;5.13;;;2.72;;
16809;SDS011;51744;50.872;4.730;2023-03-23T03:50:17;5.72;;;3.08;;
16809;SDS011;51744;50.872;4.730;2023-03-23T03:53:03;4.97;;;2.95;;
16809;SDS011;51744;50.872;4.730;2023-03-23T03:55:50;3.35;;;2.88;;
16809;SDS011;51744;50.872;4.730;2023-03-23T03:58:39;4.33;;;3.10;;
16809;SDS011;51744;50.872;4.730;2023-03-23T04:01:47;4.22;;;2.92;;
16809;SDS011;51744;50.872;4.730;2023-03-23T04:04:39;4.50;;;3.00;;
16809;SDS011;51744;50.872;4.730;2023-03-23T04:07:26;4.43;;;2.90;;
16809;SDS011;51744;50.872;4.730;2023-03-23T04:10:14;4.50;;;2.95;;
16809;SDS011;51744;50.872;4.730;2023-03-23T04:13:04;4.65;;;3.00;;
16809;SDS011;51744;50.872;4.730;2023-03-23T04:16:10;4.72;;;3.40;;
16809;SDS011;51744;50.872;4.730;2023-03-23T04:18:58;5.45;;;3.03;;
16809;SDS011;51744;50.872;4.730;2023-03-23T04:21:45;4.70;;;3.17;;
16809;SDS011;51744;50.872;4.730;2023-03-23T04:24:34;4.65;;;2.97;;
16809;SDS011;51744;50.872;4.730;2023-03-23T04:27:24;5.72;;;3.08;;
16809;SDS011;51744;50.872;4.730;2023-03-23T04:30:13;6.72;;;3.20;;
16809;SDS011;51744;50.872;4.730;2023-03-23T04:33:04;6.82;;;3.10;;
16809;SDS011;51744;50.872;4.730;2023-03-23T04:35:52;6.47;;;3.20;;
16809;SDS011;51744;50.872;4.730;2023-03-23T04:39:01;6.35;;;3.03;;
16809;SDS011;51744;50.872;4.730;2023-03-23T04:41:52;5.70;;;2.88;;
16809;SDS011;51744;50.872;4.730;2023-03-23T04:45:05;8.10;;;2.80;;
16809;SDS011;51744;50.872;4.730;2023-03-23T04:47:55;8.48;;;2.80;;
16809;SDS011;51744;50.872;4.730;2023-03-23T04:50:53;5.55;;;2.53;;
16809;SDS011;51744;50.872;4.730;2023-03-23T04:53:47;6.50;;;2.75;;
16809;SDS011;51744;50.872;4.730;2023-03-23T04:56:33;7.20;;;2.60;;
16809;SDS011;51744;50.872;4.730;2023-03-23T04:59:27;5.65;;;2.50;;
16809;SDS011;51744;50.872;4.730;2023-03-23T05:02:28;6.40;;;2.70;;
16809;SDS011;51744;50.872;4.730;2023-03-23T05:05:17;5.38;;;2.42;;
16809;SDS011;51744;50.872;4.730;2023-03-23T05:08:07;6.63;;;2.47;;
16809;SDS011;51744;50.872;4.730;2023-03-23T05:10:58;5.30;;;2.55;;
16809;SDS011;51744;50.872;4.730;2023-03-23T05:13:50;6.47;;;2.40;;
16809;SDS011;51744;50.872;4.730;2023-03-23T05:16:37;4.15;;;2.03;;
16809;SDS011;51744;50.872;4.730;2023-03-23T05:19:26;4.68;;;2.20;;
16809;SDS011;51744;50.872;4.730;2023-03-23T05:22:14;5.43;;;2.43;;
16809;SDS011;51744;50.872;4.730;2023-03-23T05:25:08;3.85;;;2.03;;
16809;SDS011;51744;50.872;4.730;2023-03-23T05:27:58;4.95;;;2.30;;
16809;SDS011;51744;50.872;4.730;2023-03-23T05:30:58;5.10;;;2.10;;
16809;SDS011;51744;50.872;4.730;2023-03-23T05:33:49;5.88;;;2.28;;
16809;SDS011;51744;50.872;4.730;2023-03-23T05:36:44;4.47;;;2.10;;
16809;SDS011;51744;50.872;4.730;2023-03-23T05:39:44;4.35;;;2.13;;
16809;SDS011;51744;50.872;4.730;2023-03-23T05:42:44;4.13;;;2.20;;
16809;SDS011;51744;50.872;4.730;2023-03-23T05:45:36;5.17;;;2.30;;
16809;SDS011;51744;50.872;4.730;2023-03-23T05:48:23;5.43;;;2.50;;
16809;SDS011;51744;50.872;4.730;2023-03-23T05:51:09;5.32;;;2.30;;
16809;SDS011;51744;50.872;4.730;2023-03-23T05:54:00;4.50;;;2.50;;
16809;SDS011;51744;50.872;4.730;2023-03-23T05:56:46;5.60;;;2.60;;
16809;SDS011;51744;50.872;4.730;2023-03-23T05:59:35;6.20;;;2.50;;
16809;SDS011;51744;50.872;4.730;2023-03-23T06:02:24;4.75;;;2.33;;
16809;SDS011;51744;50.872;4.730;2023-03-23T06:05:12;4.75;;;2.10;;
16809;SDS011;51744;50.872;4.730;2023-03-23T06:08:03;6.07;;;2.80;;
16809;SDS011;51744;50.872;4.730;2023-03-23T06:10:49;4.45;;;2.40;;
16809;SDS011;51744;50.872;4.730;2023-03-23T06:13:36;5.50;;;2.60;;
16809;SDS011;51744;50.872;4.730;2023-03-23T06:16:28;6.27;;;2.27;;
16809;SDS011;51744;50.872;4.730;2023-03-23T06:19:16;5.15;;;2.30;;
16809;SDS011;51744;50.872;4.730;2023-03-23T06:22:15;5.75;;;2.50;;
16809;SDS011;51744;50.872;4.730;2023-03-23T06:25:01;5.17;;;2.30;;
16809;SDS011;51744;50.872;4.730;2023-03-23T06:27:55;4.97;;;2.50;;
16809;SDS011;51744;50.872;4.730;2023-03-23T06:30:42;5.88;;;2.60;;
16809;SDS011;51744;50.872;4.730;2023-03-23T06:33:31;5.70;;;2.50;;
16809;SDS011;51744;50.872;4.730;2023-03-23T06:36:37;6.35;;;2.80;;
16809;SDS011;51744;50.872;4.730;2023-03-23T06:39:36;5.43;;;2.60;;
16809;SDS011;51744;50.872;4.730;2023-03-23T06:42:41;5.20;;;2.70;;
16809;SDS011;51744;50.872;4.730;2023-03-23T06:45:53;7.70;;;2.63;;
16809;SDS011;51744;50.872;4.730;2023-03-23T06:49:16;6.13;;;2.45;;
16809;SDS011;51744;50.872;4.730;2023-03-23T06:52:20;5.90;;;2.63;;
16809;SDS011;51744;50.872;4.730;2023-03-23T06:55:08;6.33;;;2.43;;
16809;SDS011;51744;50.872;4.730;2023-03-23T06:57:55;4.90;;;2.50;;
16809;SDS011;51744;50.872;4.730;2023-03-23T07:00:43;5.85;;;2.40;;
16809;SDS011;51744;50.872;4.730;2023-03-23T07:03:32;6.15;;;2.78;;
16809;SDS011;51744;50.872;4.730;2023-03-23T07:06:21;7.13;;;2.65;;
16809;SDS011;51744;50.872;4.730;2023-03-23T07:09:14;5.77;;;2.43;;
16809;SDS011;51744;50.872;4.730;2023-03-23T07:12:00;4.55;;;2.40;;
16809;SDS011;51744;50.872;4.730;2023-03-23T07:14:51;6.85;;;2.42;;
16809;SDS011;51744;50.872;4.730;2023-03-23T07:17:37;7.97;;;2.75;;
16809;SDS011;51744;50.872;4.730;2023-03-23T07:20:39;5.43;;;2.70;;
16809;SDS011;51744;50.872;4.730;2023-03-23T07:23:28;7.45;;;2.60;;
16809;SDS011;51744;50.872;4.730;2023-03-23T07:26:19;7.72;;;3.05;;
16809;SDS011;51744;50.872;4.730;2023-03-23T07:29:10;6.88;;;2.70;;
16809;SDS011;51744;50.872;4.730;2023-03-23T07:32:01;6.13;;;2.92;;
16809;SDS011;51744;50.872;4.730;2023-03-23T07:34:48;6.63;;;2.93;;
16809;SDS011;51744;50.872;4.730;2023-03-23T07:37:52;5.78;;;2.60;;
16809;SDS011;51744;50.872;4.730;2023-03-23T07:40:41;5.10;;;2.80;;
16809;SDS011;51744;50.872;4.730;2023-03-23T07:43:32;4.22;;;2.17;;
16809;SDS011;51744;50.872;4.730;2023-03-23T07:46:27;3.28;;;1.55;;
16809;SDS011;51744;50.872;4.730;2023-03-23T07:49:34;2.22;;;1.30;;
16809;SDS011;51744;50.872;4.730;2023-03-23T07:52:51;3.07;;;1.50;;
16809;SDS011;51744;50.872;4.730;2023-03-23T07:55:43;2.83;;;1.70;;
16809;SDS011;51744;50.872;4.730;2023-03-23T07:58:43;3.50;;;1.67;;
16809;SDS011;51744;50.872;4.730;2023-03-23T08:01:30;3.77;;;2.00;;
16809;SDS011;51744;50.872;4.730;2023-03-23T08:04:35;6.72;;;2.90;;
16809;SDS011;51744;50.872;4.730;2023-03-23T08:07:32;6.15;;;2.70;;
16809;SDS011;51744;50.872;4.730;2023-03-23T08:10:29;5.88;;;3.25;;
16809;SDS011;51744;50.872;4.730;2023-03-23T08:13:44;6.13;;;3.50;;
16809;SDS011;51744;50.872;4.730;2023-03-23T08:16:49;4.97;;;3.30;;
16809;SDS011;51744;50.872;4.730;2023-03-23T08:19:49;5.22;;;3.38;;
16809;SDS011;51744;50.872;4.730;2023-03-23T08:22:55;5.20;;;3.25;;
16809;SDS011;51744;50.872;4.730;2023-03-23T08:25:54;5.55;;;3.28;;
16809;SDS011;51744;50.872;4.730;2023-03-23T08:29:02;5.63;;;3.25;;
16809;SDS011;51744;50.872;4.730;2023-03-23T08:32:07;6.05;;;2.88;;
16809;SDS011;51744;50.872;4.730;2023-03-23T08:35:12;7.87;;;3.03;;
16809;SDS011;51744;50.872;4.730;2023-03-23T08:38:02;4.82;;;2.50;;
16809;SDS011;51744;50.872;4.730;2023-03-23T08:41:15;5.55;;;2.53;;
16809;SDS011;51744;50.872;4.730;2023-03-23T08:44:16;3.80;;;2.00;;
16809;SDS011;51744;50.872;4.730;2023-03-23T08:47:34;4.88;;;1.90;;
16809;SDS011;51744;50.872;4.730;2023-03-23T08:50:39;3.97;;;1.90;;
16809;SDS011;51744;50.872;4.730;2023-03-23T08:53:41;5.00;;;1.80;;
16809;SDS011;51744;50.872;4.730;2023-03-23T08:56:39;3.33;;;1.60;;
16809;SDS011;51744;50.872;4.730;2023-03-23T08:59:27;3.83;;;2.00;;
16809;SDS011;51744;50.872;4.730;2023-03-23T09:02:36;5.88;;;1.88;;
16809;SDS011;51744;50.872;4.730;2023-03-23T09:05:31;4.95;;;1.90;;
16809;SDS011;51744;50.872;4.730;2023-03-23T09:08:43;3.80;;;1.80;;
16809;SDS011;51744;50.872;4.730;2023-03-23T09:11:29;5.10;;;1.83;;
16809;SDS011;51744;50.872;4.730;2023-03-23T09:14:16;4.60;;;1.80;;
16809;SDS011;51744;50.872;4.730;2023-03-23T09:17:03;5.60;;;2.00;;
16809;SDS011;51744;50.872;4.730;2023-03-23T09:19:51;4.97;;;2.37;;
16809;SDS011;51744;50.872;4.730;2023-03-23T09:22:37;5.20;;;2.22;;
16809;SDS011;51744;50.872;4.730;2023-03-23T09:25:24;4.38;;;2.13;;
16809;SDS011;51744;50.872;4.730;2023-03-23T09:28:12;4.88;;;2.00;;
16809;SDS011;51744;50.872;4.730;2023-03-23T09:31:00;5.53;;;2.50;;
16809;SDS011;51744;50.872;4.730;2023-03-23T09:33:50;4.55;;;2.50;;
16809;SDS011;51744;50.872;4.730;2023-03-23T09:36:38;6.23;;;2.60;;
16809;SDS011;51744;50.872;4.730;2023-03-23T09:39:24;5.20;;;2.42;;
16809;SDS011;51744;50.872;4.730;2023-03-23T09:42:15;5.22;;;2.38;;
16809;SDS011;51744;50.872;4.730;2023-03-23T09:45:35;5.03;;;2.40;;
16809;SDS011;51744;50.872;4.730;2023-03-23T09:48:29;4.50;;;2.30;;
16809;SDS011;51744;50.872;4.730;2023-03-23T09:51:27;5.53;;;2.42;;
16809;SDS011;51744;50.872;4.730;2023-03-23T09:54:25;5.53;;;2.38;;
16809;SDS011;51744;50.872;4.730;2023-03-23T09:57:15;3.80;;;2.30;;
16809;SDS011;51744;50.872;4.730;2023-03-23T10:00:09;3.63;;;2.30;;
16809;SDS011;51744;50.872;4.730;2023-03-23T10:03:00;3.00;;;2.13;;
16809;SDS011;51744;50.872;4.730;2023-03-23T10:05:52;3.38;;;2.10;;
16809;SDS011;51744;50.872;4.730;2023-03-23T10:08:43;4.05;;;2.10;;
16809;SDS011;51744;50.872;4.730;2023-03-23T10:11:35;3.13;;;2.13;;
16809;SDS011;51744;50.872;4.730;2023-03-23T10:14:37;3.90;;;2.20;;
16809;SDS011;51744;50.872;4.730;2023-03-23T10:17:35;3.72;;;2.70;;
16809;SDS011;51744;50.872;4.730;2023-03-23T10:20:29;4.05;;;2.80;;
16809;SDS011;51744;50.872;4.730;2023-03-23T10:23:35;4.30;;;2.75;;
16809;SDS011;51744;50.872;4.730;2023-03-23T10:26:33;3.53;;;2.42;;
16809;SDS011;51744;50.872;4.730;2023-03-23T10:29:28;3.30;;;2.70;;
16809;SDS011;51744;50.872;4.730;2023-03-23T10:32:17;3.40;;;2.50;;
16809;SDS011;51744;50.872;4.730;2023-03-23T10:35:07;4.50;;;2.92;;
16809;SDS011;51744;50.872;4.730;2023-03-23T10:38:00;4.10;;;2.67;;
16809;SDS011;51744;50.872;4.730;2023-03-23T10:40:53;5.50;;;3.10;;
16809;SDS011;51744;50.872;4.730;2023-03-23T10:43:42;5.15;;;3.50;;
16809;SDS011;51744;50.872;4.730;2023-03-23T10:46:32;5.40;;;3.42;;
16809;SDS011;51744;50.872;4.730;2023-03-23T10:49:24;5.30;;;3.30;;
16809;SDS011;51744;50.872;4.730;2023-03-23T10:52:19;5.57;;;3.13;;
16809;SDS011;51744;50.872;4.730;2023-03-23T10:55:14;6.93;;;3.50;;
16809;SDS011;51744;50.872;4.730;2023-03-23T10:58:04;4.63;;;3.13;;
16809;SDS011;51744;50.872;4.730;2023-03-23T11:00:52;4.37;;;3.40;;
16809;SDS011;51744;50.872;4.730;2023-03-23T11:03:40;6.45;;;3.53;;
16809;SDS011;51744;50.872;4.730;2023-03-23T11:06:28;5.03;;;3.20;;
16809;SDS011;51744;50.872;4.730;2023-03-23T11:09:18;6.78;;;3.70;;
16809;SDS011;51744;50.872;4.730;2023-03-23T11:12:15;6.07;;;3.60;;
16809;SDS011;51744;50.872;4.730;2023-03-23T11:15:09;5.55;;;3.55;;
16809;SDS011;51744;50.872;4.730;2023-03-23T11:18:17;6.35;;;4.07;;
16809;SDS011;51744;50.872;4.730;2023-03-23T11:21:05;6.32;;;4.53;;
16809;SDS011;51744;50.872;4.730;2023-03-23T11:23:54;6.35;;;4.38;;
16809;SDS011;51744;50.872;4.730;2023-03-23T11:26:44;7.22;;;5.80;;
16809;SDS011;51744;50.872;4.730;2023-03-23T11:29:31;7.60;;;5.70;;
16809;SDS011;51744;50.872;4.730;2023-03-23T11:32:19;8.15;;;6.25;;
16809;SDS011;51744;50.872;4.730;2023-03-23T11:35:15;8.10;;;6.20;;
16809;SDS011;51744;50.872;4.730;2023-03-23T11:38:05;8.95;;;6.88;;
16809;SDS011;51744;50.872;4.730;2023-03-23T11:40:52;8.97;;;7.37;;
16809;SDS011;51744;50.872;4.730;2023-03-23T11:43:39;7.80;;;5.90;;
16809;SDS011;51744;50.872;4.730;2023-03-23T11:46:30;9.90;;;5.70;;
16809;SDS011;51744;50.872;4.730;2023-03-23T11:49:25;8.07;;;5.43;;
16809;SDS011;51744;50.872;4.730;2023-03-23T11:52:24;8.40;;;5.03;;
16809;SDS011;51744;50.872;4.730;2023-03-23T11:55:19;7.82;;;5.07;;
16809;SDS011;51744;50.872;4.730;2023-03-23T11:58:11;7.57;;;3.92;;
16809;SDS011;51744;50.872;4.730;2023-03-23T12:01:02;7.88;;;4.03;;
16809;SDS011;51744;50.872;4.730;2023-03-23T12:03:58;6.45;;;3.70;;
16809;SDS011;51744;50.872;4.730;2023-03-23T12:06:57;6.05;;;3.53;;
16809;SDS011;51744;50.872;4.730;2023-03-23T12:09:54;5.68;;;3.40;;
16809;SDS011;51744;50.872;4.730;2023-03-23T12:12:49;8.15;;;3.60;;
16809;SDS011;51744;50.872;4.730;2023-03-23T12:15:43;8.63;;;3.45;;
16809;SDS011;51744;50.872;4.730;2023-03-23T12:18:40;8.82;;;3.75;;
16809;SDS011;51744;50.872;4.730;2023-03-23T12:21:35;9.43;;;3.37;;
16809;SDS011;51744;50.872;4.730;2023-03-23T12:24:40;5.82;;;3.20;;
16809;SDS011;51744;50.872;4.730;2023-03-23T12:27:35;6.13;;;2.65;;
16809;SDS011;51744;50.872;4.730;2023-03-23T12:30:29;6.43;;;2.70;;
16809;SDS011;51744;50.872;4.730;2023-03-23T12:33:24;6.22;;;2.80;;
16809;SDS011;51744;50.872;4.730;2023-03-23T12:36:19;5.80;;;2.80;;
16809;SDS011;51744;50.872;4.730;2023-03-23T12:39:30;5.88;;;2.70;;
16809;SDS011;51744;50.872;4.730;2023-03-23T12:42:47;6.80;;;3.10;;
16809;SDS011;51744;50.872;4.730;2023-03-23T12:45:47;6.77;;;3.30;;
16809;SDS011;51744;50.872;4.730;2023-03-23T12:48:51;6.95;;;3.05;;
16809;SDS011;51744;50.872;4.730;2023-03-23T12:51:42;7.47;;;3.55;;
16809;SDS011;51744;50.872;4.730;2023-03-23T12:54:35;8.60;;;3.70;;
16809;SDS011;51744;50.872;4.730;2023-03-23T12:57:26;7.80;;;3.90;;
16809;SDS011;51744;50.872;4.730;2023-03-23T13:00:20;8.45;;;3.92;;
16809;SDS011;51744;50.872;4.730;2023-03-23T13:03:11;8.60;;;4.30;;
16809;SDS011;51744;50.872;4.730;2023-03-23T13:06:05;9.88;;;4.90;;
16809;SDS011;51744;50.872;4.730;2023-03-23T13:09:00;7.78;;;4.72;;
16809;SDS011;51744;50.872;4.730;2023-03-23T13:11:49;9.38;;;5.00;;
16809;SDS011;51744;50.872;4.730;2023-03-23T13:14:40;9.00;;;4.67;;
16809;SDS011;51744;50.872;4.730;2023-03-23T13:17:34;8.00;;;4.70;;
16809;SDS011;51744;50.872;4.730;2023-03-23T13:20:33;10.00;;;4.70;;
16809;SDS011;51744;50.872;4.730;2023-03-23T13:23:37;9.50;;;4.35;;
16809;SDS011;51744;50.872;4.730;2023-03-23T13:26:26;8.25;;;4.18;;
16809;SDS011;51744;50.872;4.730;2023-03-23T13:29:14;9.32;;;4.50;;
16809;SDS011;51744;50.872;4.730;2023-03-23T13:32:05;8.63;;;4.60;;
16809;SDS011;51744;50.872;4.730;2023-03-23T13:34:57;8.57;;;4.10;;
16809;SDS011;51744;50.872;4.730;2023-03-23T13:37:48;8.63;;;4.20;;
16809;SDS011;51744;50.872;4.730;2023-03-23T13:40:36;9.27;;;4.60;;
16809;SDS011;51744;50.872;4.730;2023-03-23T13:43:29;7.95;;;4.00;;
16809;SDS011;51744;50.872;4.730;2023-03-23T13:46:27;5.53;;;3.40;;
16809;SDS011;51744;50.872;4.730;2023-03-23T13:49:16;7.53;;;3.90;;
16809;SDS011;51744;50.872;4.730;2023-03-23T13:52:16;9.40;;;4.18;;
16809;SDS011;51744;50.872;4.730;2023-03-23T13:55:17;7.97;;;4.07;;
16809;SDS011;51744;50.872;4.730;2023-03-23T13:58:24;10.47;;;4.37;;
16809;SDS011;51744;50.872;4.730;2023-03-23T14:01:13;8.23;;;4.00;;
16809;SDS011;51744;50.872;4.730;2023-03-23T14:04:03;7.63;;;3.72;;
16809;SDS011;51744;50.872;4.730;2023-03-23T14:06:51;10.10;;;4.03;;
16809;SDS011;51744;50.872;4.730;2023-03-23T14:09:45;9.30;;;3.80;;
16809;SDS011;51744;50.872;4.730;2023-03-23T14:12:32;7.40;;;4.00;;
16809;SDS011;51744;50.872;4.730;2023-03-23T14:15:19;10.52;;;4.30;;
16809;SDS011;51744;50.872;4.730;2023-03-23T14:18:05;8.13;;;4.22;;
16809;SDS011;51744;50.872;4.730;2023-03-23T14:20:51;10.98;;;3.95;;
16809;SDS011;51744;50.872;4.730;2023-03-23T14:23:37;8.60;;;3.50;;
16809;SDS011;51744;50.872;4.730;2023-03-23T14:26:26;7.63;;;3.30;;
16809;SDS011;51744;50.872;4.730;2023-03-23T14:29:13;7.90;;;3.40;;
16809;SDS011;51744;50.872;4.730;2023-03-23T14:32:00;7.10;;;3.38;;
16809;SDS011;51744;50.872;4.730;2023-03-23T14:34:47;8.73;;;3.53;;
16809;SDS011;51744;50.872;4.730;2023-03-23T14:37:34;7.85;;;3.90;;
16809;SDS011;51744;50.872;4.730;2023-03-23T14:40:21;9.07;;;4.32;;
16809;SDS011;51744;50.872;4.730;2023-03-23T14:43:14;9.43;;;3.87;;
16809;SDS011;51744;50.872;4.730;2023-03-23T14:46:06;10.00;;;3.80;;
16809;SDS011;51744;50.872;4.730;2023-03-23T14:48:53;9.90;;;3.88;;
16809;SDS011;51744;50.872;4.730;2023-03-23T14:51:46;8.77;;;3.90;;
16809;SDS011;51744;50.872;4.730;2023-03-23T14:54:35;7.47;;;3.67;;
16809;SDS011;51744;50.872;4.730;2023-03-23T14:57:25;8.10;;;3.83;;
16809;SDS011;51744;50.872;4.730;2023-03-23T15:00:18;9.82;;;4.22;;
16809;SDS011;51744;50.872;4.730;2023-03-23T15:03:09;10.90;;;4.82;;
16809;SDS011;51744;50.872;4.730;2023-03-23T15:06:00;10.88;;;4.47;;
16809;SDS011;51744;50.872;4.730;2023-03-23T15:08:50;11.63;;;4.82;;
16809;SDS011;51744;50.872;4.730;2023-03-23T15:11:40;9.98;;;4.55;;
16809;SDS011;51744;50.872;4.730;2023-03-23T15:14:27;9.90;;;4.32;;
16809;SDS011;51744;50.872;4.730;2023-03-23T15:17:19;11.10;;;4.53;;
16809;SDS011;51744;50.872;4.730;2023-03-23T15:20:09;9.43;;;3.67;;
16809;SDS011;51744;50.872;4.730;2023-03-23T15:23:04;10.40;;;3.95;;
16809;SDS011;51744;50.872;4.730;2023-03-23T15:25:52;11.18;;;3.78;;
16809;SDS011;51744;50.872;4.730;2023-03-23T15:28:40;9.93;;;4.57;;
16809;SDS011;51744;50.872;4.730;2023-03-23T15:31:27;8.00;;;3.60;;
16809;SDS011;51744;50.872;4.730;2023-03-23T15:34:20;8.17;;;3.93;;
16809;SDS011;51744;50.872;4.730;2023-03-23T15:37:17;8.65;;;3.85;;
16809;SDS011;51744;50.872;4.730;2023-03-23T15:40:13;8.57;;;4.25;;
16809;SDS011;51744;50.872;4.730;2023-03-23T15:43:05;10.70;;;4.07;;
16809;SDS011;51744;50.872;4.730;2023-03-23T15:45:53;10.83;;;3.83;;
16809;SDS011;51744;50.872;4.730;2023-03-23T15:48:48;7.93;;;3.65;;
16809;SDS011;51744;50.872;4.730;2023-03-23T15:51:37;10.17;;;3.83;;
16809;SDS011;51744;50.872;4.730;2023-03-23T15:54:23;7.85;;;3.78;;
16809;SDS011;51744;50.872;4.730;2023-03-23T15:57:14;9.13;;;3.80;;
16809;SDS011;51744;50.872;4.730;2023-03-23T16:00:01;8.52;;;3.50;;
16809;SDS011;51744;50.872;4.730;2023-03-23T16:02:56;9.75;;;3.70;;
16809;SDS011;51744;50.872;4.730;2023-03-23T16:05:45;8.57;;;4.10;;
16809;SDS011;51744;50.872;4.730;2023-03-23T16:08:34;9.38;;;4.38;;
16809;SDS011;51744;50.872;4.730;2023-03-23T16:11:25;9.70;;;4.00;;
16809;SDS011;51744;50.872;4.730;2023-03-23T16:14:14;8.90;;;3.80;;
16809;SDS011;51744;50.872;4.730;2023-03-23T16:17:02;7.60;;;3.88;;
16809;SDS011;51744;50.872;4.730;2023-03-23T16:19:50;9.93;;;3.97;;
16809;SDS011;51744;50.872;4.730;2023-03-23T16:22:37;10.23;;;3.90;;
16809;SDS011;51744;50.872;4.730;2023-03-23T16:25:28;9.73;;;4.03;;
16809;SDS011;51744;50.872;4.730;2023-03-23T16:28:17;7.82;;;3.50;;
16809;SDS011;51744;50.872;4.730;2023-03-23T16:31:05;8.57;;;3.50;;
16809;SDS011;51744;50.872;4.730;2023-03-23T16:33:53;8.85;;;3.80;;
16809;SDS011;51744;50.872;4.730;2023-03-23T16:36:41;9.23;;;3.77;;
16809;SDS011;51744;50.872;4.730;2023-03-23T16:39:28;9.63;;;3.60;;
16809;SDS011;51744;50.872;4.730;2023-03-23T16:42:17;8.23;;;3.67;;
16809;SDS011;51744;50.872;4.730;2023-03-23T16:45:04;8.43;;;3.70;;
16809;SDS011;51744;50.872;4.730;2023-03-23T16:47:52;8.30;;;3.42;;
16809;SDS011;51744;50.872;4.730;2023-03-23T16:50:45;8.43;;;3.38;;
16809;SDS011;51744;50.872;4.730;2023-03-23T16:53:32;8.18;;;3.75;;
16809;SDS011;51744;50.872;4.730;2023-03-23T16:56:20;9.98;;;4.22;;
16809;SDS011;51744;50.872;4.730;2023-03-23T16:59:09;8.70;;;3.55;;
16809;SDS011;51744;50.872;4.730;2023-03-23T17:01:57;7.30;;;3.20;;
16809;SDS011;51744;50.872;4.730;2023-03-23T17:04:48;9.57;;;3.72;;
16809;SDS011;51744;50.872;4.730;2023-03-23T17:07:41;6.95;;;3.17;;
16809;SDS011;51744;50.872;4.730;2023-03-23T17:10:29;10.60;;;3.90;;
16809;SDS011;51744;50.872;4.730;2023-03-23T17:13:17;8.05;;;3.40;;
16809;SDS011;51744;50.872;4.730;2023-03-23T17:16:07;9.68;;;3.65;;
16809;SDS011;51744;50.872;4.730;2023-03-23T17:18:55;7.57;;;3.33;;
16809;SDS011;51744;50.872;4.730;2023-03-23T17:21:42;8.77;;;3.28;;
16809;SDS011;51744;50.872;4.730;2023-03-23T17:24:30;7.90;;;3.70;;
16809;SDS011;51744;50.872;4.730;2023-03-23T17:27:20;10.63;;;4.00;;